Kosrae, FM

9:05 AM EDT on October 31, 2014 (GMT -0400)
Wake Island Army Air Field | Change Station
CLOSE
Current Station
Airport
Location: Wake Island, Wake Island Army,
Elevation: 13 ft
Nearby Weather Stations

Elev 13 ft 19.28 °N, 166.64 °E | Updated 7 minutes ago

Partly Cloudy
Partly Cloudy
80 °F
Feels Like 86 °F
N
7
Wind Variable Wind from ENE

Today
High -- | Low -- °F
--% Chance of Precip.
Yesterday
High -- | Low -- °F
Precip. -- in
2:53 PM 2:49 AM
First Quarter, 55% visible
Pressure 29.89 in
Visibility 6.2 miles
Clouds Few 2100 ft
Heat Index 86 °F
Dew Point 75 °F
Humidity 85%
Rainfall 0.00 in
Snow Depth Not available.
UV 0 out of 12
Pollen Not available.
Air Quality Not available.
Flu Activity Not available.
METAR PWAK 311258Z AUTO 07006KT 9999 FEW021 27/24 A2987 RMK AO2 SLP121 T02680241

More Conditions Fewer Conditions

Pressure 29.89 in
Visibility 6.2 miles
Clouds Few 2100 ft
Heat Index 86 °F
Dew Point 75 °F
Humidity 85%
Rainfall 0.00 in
Snow Depth Not available.
UV 0 out of 12
Pollen Not available.
Air Quality Not available.
Flu Activity Not available.
METAR PWAK 311258Z AUTO 07006KT 9999 FEW021 27/24 A2987 RMK AO2 SLP121 T02680241

More Conditions Fewer Conditions

10-Day Weather Forecast

Almanac

Astronomy

Oct. 31, 2014 Rise Set
Actual Time
Civil Twilight
Nautical Twilight
Astronomical Twilight
Moon
Length of Visible Light
Length of Day
Tomorrow will be .
, % of the Moon is Illuminated

Today's Extremes

State Highs State Lows

Community

WunderPhotos

Upload Photos

1,766,601 photos uploaded!

WunderBlogs® & News

Nearby

Air Quality

  Air Quality AQ Index Pollutant
Not available.

Snow Depth

Station Depth Elevation

Earthquake Activity

City Distance Mag. Time & Date
Minimum magnitude displayed is 2.5.

Coastal Water Temperatures

Place Temperature

Nearby Weather Stations